Time;durP1;ratioP1;P1;durP2;ratioP2;P2;SDS_P1;SDS_P2;PMS_P1;PMS_P2;Temp;Humidity;BMP_temperature;BMP_pressure;BME280_temperature;BME280_humidity;BME280_pressure;Samples;Min_cycle;Max_cycle;Signal;HPM_P1;HPM_P2
2022/10/31 00:00:55;;;;;;;5.70;2.55;;;12.80;99.90;;;;;;4984445;28;20507;-74
2022/10/31 00:03:21;;;;;;;6.05;2.65;;;12.80;99.90;;;;;;4991216;28;20029;-74
2022/10/31 00:05:49;;;;;;;4.45;2.75;;;12.80;99.90;;;;;;4991059;28;20117;-74
2022/10/31 00:08:16;;;;;;;7.35;2.40;;;12.80;99.90;;;;;;4991340;28;20464;-75
2022/10/31 00:10:42;;;;;;;4.82;2.35;;;12.80;99.90;;;;;;4976934;28;20078;-74
2022/10/31 00:13:09;;;;;;;7.85;2.67;;;12.90;99.90;;;;;;4990572;28;20027;-75
2022/10/31 00:15:36;;;;;;;4.05;2.45;;;12.90;99.90;;;;;;4990941;28;20018;-74
2022/10/31 00:18:03;;;;;;;10.07;2.30;;;12.90;99.90;;;;;;4988847;28;20089;-74
2022/10/31 00:20:29;;;;;;;4.43;2.40;;;12.90;99.90;;;;;;4988649;28;20030;-75
2022/10/31 00:22:57;;;;;;;5.88;2.33;;;12.80;99.90;;;;;;4986193;28;20035;-74
2022/10/31 00:25:23;;;;;;;4.93;2.42;;;12.80;99.90;;;;;;4991013;28;20023;-74
2022/10/31 00:27:48;;;;;;;5.53;2.53;;;12.80;99.90;;;;;;4990951;28;20490;-74
2022/10/31 00:30:14;;;;;;;10.90;2.50;;;12.80;99.90;;;;;;4983498;28;20023;-74
2022/10/31 00:32:40;;;;;;;5.90;2.22;;;12.80;99.90;;;;;;4990809;28;20098;-74
2022/10/31 00:35:06;;;;;;;4.13;2.47;;;12.80;99.90;;;;;;4990342;28;20054;-75
2022/10/31 00:37:31;;;;;;;5.43;2.33;;;12.80;99.90;;;;;;4990949;28;20037;-74
2022/10/31 00:39:57;;;;;;;6.20;2.60;;;12.80;99.90;;;;;;4984491;28;20054;-74
2022/10/31 00:42:22;;;;;;;7.78;2.45;;;12.80;99.90;;;;;;4990955;28;20033;-74
2022/10/31 00:44:48;;;;;;;5.10;2.53;;;12.80;99.90;;;;;;4990299;28;20025;-74
2022/10/31 00:47:14;;;;;;;6.68;2.63;;;12.70;99.90;;;;;;4990394;28;20027;-74
2022/10/31 00:49:39;;;;;;;7.72;2.80;;;12.70;99.90;;;;;;4990584;28;20022;-74
2022/10/31 00:52:05;;;;;;;5.80;2.70;;;12.70;99.90;;;;;;4990446;28;20498;-75
2022/10/31 00:54:30;;;;;;;5.07;2.63;;;12.70;99.90;;;;;;4982385;28;20077;-75
2022/10/31 00:56:56;;;;;;;3.70;2.70;;;12.60;99.90;;;;;;4990386;28;20101;-75
2022/10/31 00:59:22;;;;;;;5.97;2.70;;;12.70;99.90;;;;;;4990136;28;20041;-75
2022/10/31 01:01:48;;;;;;;6.28;2.97;;;12.70;99.90;;;;;;4988467;28;20374;-74
2022/10/31 01:04:13;;;;;;;9.20;3.25;;;12.60;99.90;;;;;;4981839;28;20023;-73
2022/10/31 01:06:39;;;;;;;6.93;3.13;;;12.60;99.90;;;;;;4990284;28;20022;-73
2022/10/31 01:09:05;;;;;;;6.22;3.03;;;12.60;99.90;;;;;;4976904;28;20027;-74
2022/10/31 01:11:31;;;;;;;6.40;2.90;;;12.60;99.90;;;;;;4996206;28;20053;-74
2022/10/31 01:13:56;;;;;;;5.45;2.72;;;12.60;99.90;;;;;;4993095;28;20026;-75
2022/10/31 01:16:24;;;;;;;4.43;2.65;;;12.60;99.90;;;;;;4991216;28;20030;-73
2022/10/31 01:18:50;;;;;;;4.13;2.60;;;12.50;99.90;;;;;;4987224;28;20041;-74
2022/10/31 01:21:22;;;;;;;5.75;3.13;;;12.50;99.90;;;;;;4991672;28;20681;-74
2022/10/31 01:23:47;;;;;;;6.05;2.80;;;12.50;99.90;;;;;;4982499;28;20115;-74
2022/10/31 01:26:19;;;;;;;5.50;2.83;;;12.40;99.90;;;;;;4992684;28;20100;-74
2022/10/31 01:28:50;;;;;;;4.68;2.60;;;12.40;99.90;;;;;;4993871;28;20041;-74
2022/10/31 01:31:17;;;;;;;6.63;2.95;;;12.40;99.90;;;;;;4992904;28;20026;-74
2022/10/31 01:33:43;;;;;;;4.78;2.78;;;12.30;99.90;;;;;;4993645;28;20530;-75
2022/10/31 01:36:27;;;;;;;5.45;3.00;;;12.30;99.90;;;;;;4993936;28;20077;-74
2022/10/31 01:38:55;;;;;;;7.28;3.33;;;12.30;99.90;;;;;;4982558;28;20046;-74
2022/10/31 01:41:25;;;;;;;6.15;3.35;;;12.20;99.90;;;;;;4985729;28;20034;-75
2022/10/31 01:43:51;;;;;;;4.38;3.20;;;12.20;99.90;;;;;;4993674;28;20019;-73
2022/10/31 01:46:46;;;;;;;6.25;3.65;;;12.10;99.90;;;;;;4993317;28;20130;-74
2022/10/31 01:49:23;;;;;;;6.75;3.65;;;12.10;99.90;;;;;;4989084;28;20054;-74
2022/10/31 01:51:54;;;;;;;4.97;3.20;;;12.10;99.90;;;;;;4992170;28;20057;-73
2022/10/31 01:54:23;;;;;;;7.45;3.90;;;12.10;99.90;;;;;;4989632;28;20105;-73
2022/10/31 01:56:54;;;;;;;5.03;2.83;;;12.00;99.90;;;;;;4979222;28;20085;-74
2022/10/31 01:59:21;;;;;;;7.70;3.42;;;12.00;99.90;;;;;;4993490;28;20026;-73
2022/10/31 02:01:49;;;;;;;6.28;3.03;;;11.90;99.90;;;;;;4993398;28;20526;-74
2022/10/31 02:04:15;;;;;;;4.75;3.17;;;11.80;99.90;;;;;;4993048;28;20046;-75
2022/10/31 02:06:47;;;;;;;7.35;3.40;;;11.80;99.90;;;;;;4992689;28;20082;-73
2022/10/31 02:09:14;;;;;;;5.05;3.15;;;11.80;99.90;;;;;;4992068;28;20022;-74
2022/10/31 02:11:42;;;;;;;9.75;3.60;;;11.70;99.90;;;;;;4987468;28;20033;-75
2022/10/31 02:14:07;;;;;;;8.68;3.60;;;11.70;99.90;;;;;;4993632;28;20027;-74
2022/10/31 02:16:33;;;;;;;4.88;3.20;;;11.70;99.90;;;;;;4992587;28;20406;-75
2022/10/31 02:18:58;;;;;;;5.53;3.55;;;11.60;99.90;;;;;;4993603;28;20113;-73
2022/10/31 02:21:56;;;;;;;5.57;3.40;;;11.60;99.90;;;;;;4979190;28;20059;-74
2022/10/31 02:24:44;;;;;;;5.40;3.47;;;11.50;99.90;;;;;;4990507;28;20030;-74
2022/10/31 02:27:27;;;;;;;6.60;3.50;;;11.50;99.90;;;;;;4978541;28;20026;-74
2022/10/31 02:30:18;;;;;;;5.35;3.47;;;11.40;99.90;;;;;;4992867;28;20034;-74
2022/10/31 02:32:49;;;;;;;5.50;3.30;;;11.40;99.90;;;;;;4979447;28;20026;-74
2022/10/31 02:35:36;;;;;;;6.00;3.55;;;11.30;99.90;;;;;;4988673;28;20027;-74
2022/10/31 02:38:14;;;;;;;7.43;4.38;;;11.30;99.90;;;;;;4992137;28;20034;-74
2022/10/31 02:41:18;;;;;;;7.22;4.60;;;11.30;99.90;;;;;;4984814;28;20122;-74
2022/10/31 02:44:06;;;;;;;9.27;5.25;;;11.30;99.90;;;;;;4988550;28;20042;-74
2022/10/31 02:46:41;;;;;;;11.23;6.13;;;11.30;99.90;;;;;;4984403;28;20070;-74
2022/10/31 02:49:18;;;;;;;11.60;7.13;;;11.30;99.90;;;;;;4992637;28;20086;-74
2022/10/31 02:51:45;;;;;;;12.80;6.93;;;11.30;99.90;;;;;;4986668;28;20018;-73
2022/10/31 02:54:25;;;;;;;11.75;7.13;;;11.40;99.90;;;;;;4992507;28;20070;-74
2022/10/31 02:57:02;;;;;;;9.77;6.80;;;11.40;99.90;;;;;;4992120;28;20101;-74
2022/10/31 02:59:30;;;;;;;9.00;6.57;;;11.40;99.90;;;;;;4991950;28;20034;-74
2022/10/31 03:02:06;;;;;;;11.93;6.50;;;11.50;99.90;;;;;;4992511;28;20426;-75
2022/10/31 03:05:16;;;;;;;11.93;6.97;;;11.50;99.90;;;;;;4991934;28;20030;-75
2022/10/31 03:08:06;;;;;;;12.13;6.85;;;11.50;99.90;;;;;;4981417;28;20058;-74
2022/10/31 03:10:42;;;;;;;10.93;7.18;;;11.50;99.90;;;;;;4982976;28;20086;-74
2022/10/31 03:13:32;;;;;;;12.18;6.80;;;11.40;99.90;;;;;;4991027;28;20080;-74
2022/10/31 03:16:05;;;;;;;10.77;7.03;;;11.40;99.90;;;;;;4990816;28;20045;-74
2022/10/31 03:18:40;;;;;;;11.02;7.10;;;11.40;99.90;;;;;;4991805;28;20030;-74
2022/10/31 03:21:12;;;;;;;10.13;7.45;;;11.40;99.90;;;;;;4990608;28;20023;-74
2022/10/31 03:23:40;;;;;;;13.23;7.50;;;11.30;99.90;;;;;;4970589;28;20070;-74
2022/10/31 03:26:09;;;;;;;14.05;8.60;;;11.30;99.90;;;;;;4985292;28;20443;-74
2022/10/31 03:28:41;;;;;;;14.95;9.13;;;11.30;99.90;;;;;;4990157;28;20030;-77
2022/10/31 03:31:08;;;;;;;14.27;9.45;;;11.30;99.90;;;;;;4988227;28;20026;-73
2022/10/31 03:33:36;;;;;;;13.30;8.80;;;11.40;99.90;;;;;;4990987;28;20038;-75
2022/10/31 03:36:04;;;;;;;17.00;10.00;;;11.40;99.90;;;;;;4988330;28;20019;-73
2022/10/31 03:38:33;;;;;;;21.05;10.93;;;11.40;99.90;;;;;;4991584;28;20143;-74
2022/10/31 03:41:02;;;;;;;20.65;11.65;;;11.40;99.90;;;;;;4986099;28;20506;-74
2022/10/31 03:43:32;;;;;;;20.33;11.65;;;11.50;99.90;;;;;;4985566;28;20022;-74
2022/10/31 03:45:59;;;;;;;24.92;12.13;;;11.50;99.90;;;;;;4978777;28;20035;-74
2022/10/31 03:48:25;;;;;;;23.52;12.70;;;11.50;99.90;;;;;;4989438;28;20474;-74
2022/10/31 03:50:58;;;;;;;23.05;12.88;;;11.50;99.90;;;;;;4992031;28;20030;-73
2022/10/31 03:53:36;;;;;;;24.70;15.25;;;11.50;99.90;;;;;;4991028;28;20022;-74
2022/10/31 03:56:32;;;;;;;24.42;14.52;;;11.50;99.90;;;;;;4971544;28;20038;-75
2022/10/31 03:59:05;;;;;;;23.98;14.90;;;11.50;99.90;;;;;;4986824;28;20038;-73
2022/10/31 04:01:34;;;;;;;26.98;15.02;;;11.50;99.90;;;;;;4990966;28;20069;-74
2022/10/31 04:04:01;;;;;;;25.77;15.63;;;11.60;99.90;;;;;;4990486;28;20085;-74
2022/10/31 04:06:28;;;;;;;26.15;16.50;;;11.50;99.90;;;;;;4986859;28;20037;-74
2022/10/31 04:08:58;;;;;;;30.48;15.57;;;11.60;99.90;;;;;;4985452;28;20034;-74
2022/10/31 04:11:29;;;;;;;28.98;16.85;;;11.60;99.90;;;;;;4990719;28;20018;-73
2022/10/31 04:13:56;;;;;;;26.80;16.23;;;11.60;99.90;;;;;;4988968;28;20027;-74
2022/10/31 04:16:24;;;;;;;30.33;17.08;;;11.60;99.90;;;;;;4971509;28;20026;-75
2022/10/31 04:18:50;;;;;;;29.55;17.83;;;11.60;99.90;;;;;;4981002;28;20393;-73
2022/10/31 04:21:16;;;;;;;27.98;17.38;;;11.60;99.90;;;;;;4987187;28;20031;-74
2022/10/31 04:23:42;;;;;;;31.73;19.35;;;11.60;99.90;;;;;;4983038;28;20363;-75
2022/10/31 04:26:10;;;;;;;33.30;18.08;;;11.60;99.90;;;;;;4981357;28;20109;-74
2022/10/31 04:28:36;;;;;;;32.35;17.88;;;11.60;99.90;;;;;;4978335;28;20072;-75
2022/10/31 04:31:01;;;;;;;31.67;17.65;;;11.60;99.90;;;;;;4980893;28;20023;-73
2022/10/31 04:33:27;;;;;;;27.77;16.02;;;11.60;99.90;;;;;;4990771;28;20157;-75
2022/10/31 04:35:52;;;;;;;27.67;17.08;;;11.70;99.90;;;;;;4990782;28;20033;-73
2022/10/31 04:38:18;;;;;;;27.98;17.20;;;11.60;99.90;;;;;;4990709;28;20033;-74
2022/10/31 04:40:45;;;;;;;26.48;16.65;;;11.60;99.90;;;;;;4990773;28;20414;-74
2022/10/31 04:43:11;;;;;;;26.17;16.58;;;11.60;99.90;;;;;;4976468;28;20027;-74
2022/10/31 04:45:37;;;;;;;27.92;16.02;;;11.60;99.90;;;;;;4990382;28;20041;-74
2022/10/31 04:48:03;;;;;;;29.50;15.77;;;11.50;99.90;;;;;;4992274;28;20164;-74
2022/10/31 04:50:28;;;;;;;25.92;15.25;;;11.50;99.90;;;;;;4989754;28;20051;-74
2022/10/31 04:52:54;;;;;;;25.02;14.80;;;11.40;99.90;;;;;;4985391;28;20052;-75
2022/10/31 04:55:19;;;;;;;21.65;14.20;;;11.40;99.90;;;;;;4984729;28;20027;-74
2022/10/31 04:57:50;;;;;;;26.35;15.18;;;11.40;99.90;;;;;;4983318;28;20098;-75
2022/10/31 05:00:18;;;;;;;25.92;15.82;;;11.40;99.90;;;;;;4994690;28;20049;-74
2022/10/31 05:02:45;;;;;;;21.58;14.00;;;11.30;99.90;;;;;;4994385;28;20022;-74
2022/10/31 05:05:12;;;;;;;24.38;14.63;;;11.40;99.90;;;;;;4994254;28;20018;-74
2022/10/31 05:07:45;;;;;;;26.38;15.23;;;11.30;99.90;;;;;;4993536;28;20042;-75
2022/10/31 05:10:12;;;;;;;25.20;14.60;;;11.30;99.90;;;;;;4994270;28;20352;-73
2022/10/31 05:12:46;;;;;;;22.60;14.65;;;11.30;99.90;;;;;;4993560;28;20034;-75
2022/10/31 05:15:12;;;;;;;22.15;14.20;;;11.30;99.90;;;;;;4994122;28;20368;-74
2022/10/31 05:17:37;;;;;;;23.92;15.07;;;11.20;99.90;;;;;;4994178;28;20032;-75
2022/10/31 05:20:03;;;;;;;24.27;14.38;;;11.20;99.90;;;;;;4991432;28;20023;-74
2022/10/31 05:22:29;;;;;;;23.02;14.13;;;11.20;99.90;;;;;;4992146;28;20394;-74
2022/10/31 05:24:54;;;;;;;26.52;14.30;;;11.20;99.90;;;;;;4992803;28;20019;-74
2022/10/31 05:27:20;;;;;;;22.40;13.98;;;11.20;99.90;;;;;;4993522;28;20066;-73
2022/10/31 05:29:46;;;;;;;23.27;13.88;;;11.10;99.90;;;;;;4991935;28;20063;-74
2022/10/31 05:32:12;;;;;;;19.83;13.70;;;11.10;99.90;;;;;;4992061;28;20247;-74
2022/10/31 05:34:37;;;;;;;21.75;13.73;;;11.00;99.90;;;;;;4986367;28;20088;-73
2022/10/31 05:37:03;;;;;;;17.42;12.15;;;11.00;99.90;;;;;;4992106;28;20062;-75
2022/10/31 05:39:28;;;;;;;17.65;12.57;;;11.00;99.90;;;;;;4981688;28;20050;-74
2022/10/31 05:41:54;;;;;;;19.65;12.70;;;10.90;99.90;;;;;;4991920;28;20022;-74
2022/10/31 05:44:19;;;;;;;17.13;12.00;;;10.90;99.90;;;;;;4982549;28;20019;-74
2022/10/31 05:46:46;;;;;;;17.05;11.93;;;10.80;99.90;;;;;;4975275;28;20058;-74
2022/10/31 05:49:12;;;;;;;17.50;11.40;;;10.80;99.90;;;;;;4993495;28;20339;-75
2022/10/31 05:51:38;;;;;;;17.50;11.05;;;10.80;99.90;;;;;;4992398;28;20035;-74
2022/10/31 05:54:04;;;;;;;15.98;10.48;;;10.70;99.90;;;;;;4991938;28;20426;-74
2022/10/31 05:56:30;;;;;;;17.52;11.65;;;10.70;99.90;;;;;;4992123;28;20018;-75
2022/10/31 05:58:55;;;;;;;19.30;11.40;;;10.60;99.90;;;;;;4991088;28;20101;-73
2022/10/31 06:01:21;;;;;;;18.40;11.27;;;10.60;99.90;;;;;;4990855;28;20420;-74
2022/10/31 06:03:46;;;;;;;15.18;10.80;;;10.60;99.90;;;;;;4991294;28;20065;-74
2022/10/31 06:06:12;;;;;;;17.10;11.07;;;10.60;99.90;;;;;;4989707;28;20466;-74
2022/10/31 06:08:38;;;;;;;19.23;11.13;;;10.50;99.90;;;;;;4991376;28;20517;-74
2022/10/31 06:11:03;;;;;;;18.23;11.60;;;10.50;99.90;;;;;;4986888;28;20109;-74
2022/10/31 06:13:29;;;;;;;16.77;11.65;;;10.50;99.90;;;;;;5006968;28;20035;-74
2022/10/31 06:15:54;;;;;;;17.77;12.10;;;10.40;99.90;;;;;;4989718;28;20026;-74
2022/10/31 06:18:20;;;;;;;16.33;11.60;;;10.50;99.90;;;;;;4990860;28;20037;-73
2022/10/31 06:20:46;;;;;;;16.80;11.65;;;10.40;99.90;;;;;;4989191;28;20034;-75
2022/10/31 06:23:11;;;;;;;18.58;12.50;;;10.40;99.90;;;;;;4983489;28;20029;-74
2022/10/31 06:25:37;;;;;;;20.90;13.77;;;10.40;99.90;;;;;;4991704;28;20022;-74
2022/10/31 06:28:02;;;;;;;19.90;13.43;;;10.40;99.90;;;;;;4991612;28;20560;-73
2022/10/31 06:30:28;;;;;;;20.92;12.77;;;10.40;99.90;;;;;;4991300;28;20019;-74
2022/10/31 06:32:54;;;;;;;22.77;13.98;;;10.40;99.90;;;;;;4991630;28;20081;-73
2022/10/31 06:35:19;;;;;;;23.33;14.75;;;10.30;99.90;;;;;;4991428;28;20073;-75
2022/10/31 06:37:55;;;;;;;23.70;14.85;;;10.30;99.90;;;;;;4991200;28;20443;-74
2022/10/31 06:40:21;;;;;;;24.88;15.23;;;10.30;99.90;;;;;;4991617;28;20141;-73
2022/10/31 06:42:46;;;;;;;23.05;14.38;;;10.20;99.90;;;;;;4989069;28;20352;-73
2022/10/31 06:45:12;;;;;;;22.25;14.68;;;10.20;99.90;;;;;;4989282;28;20033;-74
2022/10/31 06:47:38;;;;;;;24.13;14.45;;;10.20;99.90;;;;;;4990172;28;20030;-74
2022/10/31 06:50:04;;;;;;;21.98;14.98;;;10.30;99.90;;;;;;4990099;28;20025;-74
2022/10/31 06:52:29;;;;;;;26.35;14.77;;;10.20;99.90;;;;;;4991062;28;20019;-73
2022/10/31 06:54:55;;;;;;;27.33;16.17;;;10.20;99.90;;;;;;4991248;28;20027;-74
2022/10/31 06:57:21;;;;;;;23.92;15.13;;;10.30;99.90;;;;;;4990460;28;20037;-74
2022/10/31 06:59:46;;;;;;;22.85;15.35;;;10.30;99.90;;;;;;4990694;28;20465;-74
2022/10/31 07:02:12;;;;;;;23.15;15.07;;;10.30;99.90;;;;;;4990534;28;20498;-74
2022/10/31 07:04:37;;;;;;;27.63;16.20;;;10.30;99.90;;;;;;4988189;28;20030;-74
2022/10/31 07:07:03;;;;;;;27.65;16.20;;;10.30;99.90;;;;;;4990581;28;20704;-74
2022/10/31 07:09:29;;;;;;;25.77;14.95;;;10.40;99.90;;;;;;4990649;28;20026;-75
2022/10/31 07:11:54;;;;;;;28.42;16.33;;;10.40;99.90;;;;;;4990424;28;20019;-74
2022/10/31 07:14:20;;;;;;;26.92;15.27;;;10.40;99.90;;;;;;5021978;28;20394;-75
2022/10/31 07:16:50;;;;;;;27.45;16.67;;;10.50;99.90;;;;;;4990800;28;20058;-73
2022/10/31 07:19:16;;;;;;;27.63;16.13;;;10.50;99.90;;;;;;4991668;28;20463;-73
2022/10/31 07:21:41;;;;;;;27.13;16.65;;;10.50;99.90;;;;;;4992609;28;20023;-73
2022/10/31 07:24:07;;;;;;;29.75;17.48;;;10.50;99.90;;;;;;4990981;28;20113;-76
2022/10/31 07:26:32;;;;;;;25.10;15.70;;;10.60;99.90;;;;;;4991849;28;20022;-73
2022/10/31 07:28:59;;;;;;;30.73;17.27;;;10.60;99.90;;;;;;4990313;28;20034;-72
2022/10/31 07:31:25;;;;;;;26.05;16.63;;;10.60;99.90;;;;;;4990961;28;20026;-73
2022/10/31 07:33:50;;;;;;;27.90;16.05;;;10.60;99.90;;;;;;4990386;28;20026;-73
2022/10/31 07:36:16;;;;;;;28.25;16.77;;;10.60;99.90;;;;;;4985349;28;20027;-73
2022/10/31 07:38:41;;;;;;;25.95;15.85;;;10.70;99.90;;;;;;4990059;28;20065;-73
2022/10/31 07:41:07;;;;;;;28.35;17.23;;;10.70;99.90;;;;;;4991119;28;20019;-74
2022/10/31 07:43:32;;;;;;;23.52;15.88;;;10.70;99.90;;;;;;4990229;28;20510;-74
2022/10/31 07:45:58;;;;;;;28.02;16.25;;;10.70;99.90;;;;;;4990799;28;20553;-74
2022/10/31 07:48:23;;;;;;;24.08;15.93;;;10.80;99.90;;;;;;4988747;28;20038;-74
2022/10/31 07:50:49;;;;;;;30.75;17.85;;;10.80;99.90;;;;;;4983317;28;20019;-74
2022/10/31 07:53:16;;;;;;;33.53;17.80;;;10.80;99.90;;;;;;4984712;28;20140;-73
2022/10/31 07:55:42;;;;;;;30.95;17.42;;;10.80;99.90;;;;;;4985190;28;20050;-73
2022/10/31 07:58:13;;;;;;;30.85;17.48;;;10.80;99.90;;;;;;4981238;28;20026;-74
2022/10/31 08:00:41;;;;;;;28.88;18.75;;;10.90;99.90;;;;;;4977031;28;20111;-74
2022/10/31 08:03:17;;;;;;;28.65;17.95;;;10.90;99.90;;;;;;4990680;28;20030;-73
2022/10/31 08:05:47;;;;;;;34.85;18.70;;;11.00;99.90;;;;;;4991532;28;20034;-74
2022/10/31 08:08:13;;;;;;;37.90;19.83;;;11.00;99.90;;;;;;4990425;28;20030;-73
2022/10/31 08:10:40;;;;;;;36.03;19.95;;;11.00;99.90;;;;;;4990035;28;20113;-74
2022/10/31 08:13:11;;;;;;;36.63;20.13;;;11.10;99.90;;;;;;4976649;28;20014;-74
2022/10/31 08:15:39;;;;;;;37.17;21.02;;;11.10;99.90;;;;;;4990965;28;20092;-73
2022/10/31 08:18:15;;;;;;;35.47;20.27;;;11.10;99.90;;;;;;4990559;28;20469;-73
2022/10/31 08:20:41;;;;;;;32.38;21.52;;;11.20;99.90;;;;;;4991570;28;20035;-74
2022/10/31 08:23:09;;;;;;;35.38;19.40;;;11.20;99.90;;;;;;4975405;28;20031;-73
2022/10/31 08:25:36;;;;;;;32.00;19.98;;;11.30;99.90;;;;;;4990790;28;20034;-73
2022/10/31 08:28:01;;;;;;;33.35;19.33;;;11.30;99.90;;;;;;4990006;28;20545;-73
2022/10/31 08:30:29;;;;;;;39.50;20.45;;;11.30;99.90;;;;;;4983130;28;20039;-73
2022/10/31 08:33:02;;;;;;;33.20;21.20;;;11.40;99.90;;;;;;4984877;28;20030;-74
2022/10/31 08:35:28;;;;;;;42.53;24.05;;;11.40;99.90;;;;;;4977605;28;20026;-72
2022/10/31 08:37:55;;;;;;;42.83;24.35;;;11.50;99.90;;;;;;4990709;28;20034;-74
2022/10/31 08:40:20;;;;;;;45.72;24.88;;;11.60;99.90;;;;;;4988663;28;20129;-73
2022/10/31 08:42:46;;;;;;;46.70;25.98;;;11.70;99.90;;;;;;4989554;28;20483;-73
2022/10/31 08:45:11;;;;;;;47.45;26.65;;;11.80;99.90;;;;;;4975953;28;20033;-73
2022/10/31 08:47:37;;;;;;;49.78;29.05;;;11.90;99.90;;;;;;4989421;28;20164;-74
2022/10/31 08:50:03;;;;;;;48.95;28.13;;;12.10;99.90;;;;;;4974602;28;20027;-72
2022/10/31 08:52:28;;;;;;;54.30;29.08;;;12.20;99.90;;;;;;4990652;28;20117;-73
2022/10/31 08:54:54;;;;;;;54.42;28.48;;;12.30;99.90;;;;;;4990078;28;20050;-73
2022/10/31 08:57:19;;;;;;;52.03;28.48;;;12.50;99.90;;;;;;4989930;28;20084;-73
2022/10/31 08:59:45;;;;;;;49.70;27.92;;;12.50;99.90;;;;;;4990607;28;20069;-74
2022/10/31 09:02:11;;;;;;;50.33;28.17;;;12.70;99.90;;;;;;4977913;28;20023;-73
2022/10/31 09:04:36;;;;;;;48.88;28.42;;;12.80;99.90;;;;;;4988338;28;20029;-72
2022/10/31 09:07:02;;;;;;;49.97;27.00;;;12.90;99.90;;;;;;4990432;28;20471;-73
2022/10/31 09:09:27;;;;;;;52.30;26.17;;;13.00;99.90;;;;;;4989660;28;20435;-73
2022/10/31 09:11:53;;;;;;;55.78;26.77;;;13.10;99.90;;;;;;4990192;28;20446;-74
2022/10/31 09:14:18;;;;;;;45.60;24.20;;;13.20;99.90;;;;;;4990119;28;20027;-74
2022/10/31 09:16:44;;;;;;;43.15;25.15;;;13.30;99.90;;;;;;4990704;28;20034;-73
2022/10/31 09:19:10;;;;;;;57.30;23.90;;;13.40;99.90;;;;;;4990190;28;20034;-73
2022/10/31 09:21:35;;;;;;;51.35;24.10;;;13.50;99.90;;;;;;4990011;28;20050;-73
2022/10/31 09:24:01;;;;;;;48.83;22.77;;;13.60;99.90;;;;;;4990206;28;20023;-72
2022/10/31 09:26:26;;;;;;;45.67;21.90;;;13.70;99.90;;;;;;4988655;28;20406;-73
2022/10/31 09:28:52;;;;;;;39.63;21.95;;;13.80;99.90;;;;;;4990357;28;20034;-75
2022/10/31 09:31:17;;;;;;;37.45;21.25;;;13.80;99.90;;;;;;4990653;28;20054;-74
2022/10/31 09:33:43;;;;;;;47.53;21.45;;;13.90;99.90;;;;;;4989813;28;20018;-74
2022/10/31 09:36:09;;;;;;;40.38;20.55;;;13.90;99.90;;;;;;4989584;28;20023;-75
2022/10/31 09:38:34;;;;;;;37.08;19.73;;;14.00;99.90;;;;;;4992116;28;20091;-74
2022/10/31 09:41:15;;;;;;;38.40;20.67;;;14.00;99.90;;;;;;4993796;28;20495;-74
2022/10/31 09:44:00;;;;;;;35.60;19.92;;;14.00;99.90;;;;;;4993361;28;20026;-74
2022/10/31 09:47:02;;;;;;;37.45;19.90;;;14.10;99.90;;;;;;4980593;28;20027;-74
2022/10/31 09:50:06;;;;;;;34.17;19.65;;;14.20;99.90;;;;;;4984520;28;20031;-74
2022/10/31 09:52:35;;;;;;;36.63;20.80;;;14.20;99.90;;;;;;4979614;28;20030;-74
2022/10/31 09:55:27;;;;;;;33.92;19.70;;;14.20;99.90;;;;;;4993283;28;20061;-73
2022/10/31 09:57:54;;;;;;;40.03;20.48;;;14.30;99.90;;;;;;4993121;28;20014;-74
2022/10/31 10:00:22;;;;;;;35.67;19.98;;;14.40;99.90;;;;;;4991840;28;20085;-74
2022/10/31 10:03:05;;;;;;;30.52;17.65;;;14.40;99.90;;;;;;4993138;28;20021;-74
2022/10/31 10:05:45;;;;;;;30.75;18.10;;;14.50;99.90;;;;;;4991849;28;20074;-72
2022/10/31 10:08:23;;;;;;;30.00;18.25;;;14.50;99.90;;;;;;4979277;28;20029;-72
2022/10/31 10:11:02;;;;;;;35.55;18.80;;;14.60;99.90;;;;;;4993295;28;20060;-72
2022/10/31 10:13:51;;;;;;;29.25;17.05;;;14.60;99.90;;;;;;4981203;28;20041;-72
2022/10/31 10:16:23;;;;;;;28.23;17.23;;;14.60;99.90;;;;;;4989830;28;20971;-72
2022/10/31 10:18:57;;;;;;;30.70;17.58;;;14.60;99.90;;;;;;4973380;28;20027;-73
2022/10/31 10:21:52;;;;;;;29.07;17.27;;;14.70;99.90;;;;;;4989227;28;20023;-72
2022/10/31 10:24:24;;;;;;;30.08;18.17;;;14.80;99.90;;;;;;4988569;28;20126;-73
2022/10/31 10:27:11;;;;;;;30.83;17.90;;;14.80;99.90;;;;;;4991870;28;20475;-73
2022/10/31 10:30:02;;;;;;;32.25;17.88;;;15.00;99.90;;;;;;4992085;28;20038;-72
2022/10/31 10:32:32;;;;;;;31.33;16.85;;;15.10;99.90;;;;;;4992378;28;20022;-72
2022/10/31 10:35:09;;;;;;;34.72;18.05;;;15.20;99.90;;;;;;4992263;28;20030;-72
2022/10/31 10:37:39;;;;;;;33.60;16.67;;;15.40;99.90;;;;;;4992835;28;20074;-73
2022/10/31 10:40:16;;;;;;;29.45;15.25;;;15.50;99.90;;;;;;4991869;28;20438;-73
2022/10/31 10:48:41;;;;;;;24.42;13.18;;;15.80;99.90;;;;;;4986919;28;20453;-73
2022/10/31 10:51:21;;;;;;;25.23;12.73;;;15.80;99.90;;;;;;4982382;28;20026;-74
2022/10/31 10:54:02;;;;;;;26.83;13.15;;;15.80;99.90;;;;;;4988499;28;20548;-72
2022/10/31 10:57:04;;;;;;;23.75;13.52;;;15.80;99.90;;;;;;4984392;28;20027;-73
2022/10/31 10:59:31;;;;;;;27.77;14.00;;;15.80;99.90;;;;;;4949791;29;20114;-73
2022/10/31 11:01:58;;;;;;;27.60;13.82;;;15.80;99.90;;;;;;4950713;29;20027;-72
2022/10/31 11:04:35;;;;;;;32.78;18.30;;;15.80;99.90;;;;;;4937040;29;20407;-73
2022/10/31 11:07:11;;;;;;;38.90;20.35;;;15.90;99.90;;;;;;4950427;29;20031;-73
2022/10/31 11:09:37;;;;;;;40.65;20.25;;;15.90;99.90;;;;;;4946680;29;20040;-71
2022/10/31 11:12:21;;;;;;;39.55;20.63;;;15.90;99.90;;;;;;4940989;29;20031;-72
2022/10/31 11:14:55;;;;;;;39.75;20.55;;;16.00;99.90;;;;;;4946115;29;20155;-72
2022/10/31 11:17:31;;;;;;;39.83;20.55;;;16.10;99.90;;;;;;4942120;29;20543;-72
2022/10/31 11:20:03;;;;;;;42.58;21.08;;;16.20;99.90;;;;;;4950341;29;20399;-73
2022/10/31 11:22:29;;;;;;;40.92;19.63;;;16.20;99.90;;;;;;4950522;29;20039;-73
2022/10/31 11:24:54;;;;;;;38.03;20.33;;;16.40;99.90;;;;;;4936708;29;20030;-73
2022/10/31 11:27:22;;;;;;;34.17;18.20;;;16.40;99.90;;;;;;4950104;29;20594;-74
2022/10/31 11:29:49;;;;;;;37.55;20.08;;;16.50;99.90;;;;;;4950422;29;20039;-72
2022/10/31 11:32:19;;;;;;;40.08;20.15;;;16.60;99.90;;;;;;4950355;29;20472;-72
2022/10/31 11:34:49;;;;;;;33.33;19.38;;;16.60;99.90;;;;;;4952746;28;20094;-73
2022/10/31 11:37:16;;;;;;;36.15;18.80;;;16.60;99.90;;;;;;4986636;28;20033;-74
2022/10/31 11:39:45;;;;;;;45.80;20.42;;;16.60;99.90;;;;;;4979396;28;20042;-73
2022/10/31 11:42:11;;;;;;;36.10;19.13;;;16.60;99.90;;;;;;4983319;28;20023;-74
2022/10/31 11:44:42;;;;;;;41.75;19.52;;;16.60;99.90;;;;;;4991015;28;20037;-73
2022/10/31 11:47:14;;;;;;;38.17;20.40;;;16.60;99.90;;;;;;4981277;28;20028;-74
2022/10/31 11:49:43;;;;;;;38.97;20.40;;;16.50;99.90;;;;;;4980625;28;20030;-73
2022/10/31 11:52:20;;;;;;;41.22;20.75;;;16.50;99.90;;;;;;4986665;28;20081;-73
2022/10/31 11:54:52;;;;;;;39.80;21.75;;;16.40;99.90;;;;;;4976359;28;20042;-73
2022/10/31 11:57:22;;;;;;;40.58;22.27;;;16.40;99.90;;;;;;4991088;28;20548;-72
2022/10/31 11:59:53;;;;;;;39.97;21.38;;;16.40;99.90;;;;;;4986799;28;20030;-74
2022/10/31 12:02:19;;;;;;;40.25;21.20;;;16.40;99.90;;;;;;4991171;28;20030;-73
2022/10/31 12:04:50;;;;;;;36.63;21.60;;;16.40;99.90;;;;;;4976304;28;20038;-74
2022/10/31 12:07:15;;;;;;;42.58;21.60;;;16.50;99.90;;;;;;4977321;28;20045;-73
2022/10/31 12:09:41;;;;;;;41.35;21.65;;;16.60;99.90;;;;;;4988524;28;20442;-72
2022/10/31 12:12:35;;;;;;;42.40;22.00;;;16.70;99.90;;;;;;4990833;28;20018;-71
2022/10/31 12:15:13;;;;;;;40.88;21.92;;;16.80;99.90;;;;;;4984932;28;20106;-74
2022/10/31 12:18:04;;;;;;;44.83;22.85;;;16.90;99.90;;;;;;4984901;28;20176;-73
2022/10/31 12:20:56;;;;;;;41.08;21.73;;;17.00;99.90;;;;;;4977634;28;20498;-73
2022/10/31 12:23:36;;;;;;;41.22;21.20;;;17.10;99.90;;;;;;4987118;28;20086;-73
2022/10/31 12:26:18;;;;;;;41.78;21.17;;;17.10;99.90;;;;;;4991147;28;20037;-73
2022/10/31 12:28:49;;;;;;;42.95;23.00;;;17.10;99.90;;;;;;4987954;28;20023;-73
2022/10/31 12:31:35;;;;;;;45.17;23.27;;;17.10;99.90;;;;;;4990697;28;20505;-74
2022/10/31 12:34:37;;;;;;;45.47;24.30;;;17.10;99.90;;;;;;4991013;28;20026;-73
2022/10/31 12:37:26;;;;;;;47.42;23.02;;;17.20;99.90;;;;;;4988857;28;20467;-74
2022/10/31 12:40:05;;;;;;;49.88;24.15;;;17.20;99.90;;;;;;4962705;28;20043;-73
2022/10/31 12:42:36;;;;;;;45.10;23.95;;;17.30;99.90;;;;;;4980650;28;20042;-71
2022/10/31 12:45:30;;;;;;;47.45;23.25;;;17.40;99.90;;;;;;4986923;28;20494;-73
2022/10/31 12:48:07;;;;;;;44.88;23.70;;;17.50;99.90;;;;;;4989867;28;20030;-74
2022/10/31 12:50:58;;;;;;;43.72;23.25;;;17.50;99.90;;;;;;4989664;28;20022;-73
2022/10/31 12:53:35;;;;;;;47.00;23.63;;;17.50;99.90;;;;;;4990385;28;20037;-73